sensor_id;sensor_type;location;lat;lon;timestamp;P1;durP1;ratioP1;P2;durP2;ratioP2
19278;SDS011;9773;47.062;15.446;2023-12-20T00:02:22;6.87;;;4.70;;
19278;SDS011;9773;47.062;15.446;2023-12-20T00:04:48;8.60;;;4.97;;
19278;SDS011;9773;47.062;15.446;2023-12-20T00:07:15;6.00;;;4.93;;
19278;SDS011;9773;47.062;15.446;2023-12-20T00:09:41;5.77;;;5.10;;
19278;SDS011;9773;47.062;15.446;2023-12-20T00:12:07;7.73;;;5.03;;
19278;SDS011;9773;47.062;15.446;2023-12-20T00:14:33;14.33;;;6.37;;
19278;SDS011;9773;47.062;15.446;2023-12-20T00:16:59;9.33;;;6.03;;
19278;SDS011;9773;47.062;15.446;2023-12-20T00:19:25;11.80;;;7.17;;
19278;SDS011;9773;47.062;15.446;2023-12-20T00:21:52;8.57;;;6.57;;
19278;SDS011;9773;47.062;15.446;2023-12-20T00:24:18;12.83;;;6.90;;
19278;SDS011;9773;47.062;15.446;2023-12-20T00:26:44;11.77;;;8.20;;
19278;SDS011;9773;47.062;15.446;2023-12-20T00:29:10;14.37;;;8.90;;
19278;SDS011;9773;47.062;15.446;2023-12-20T00:31:36;16.20;;;9.40;;
19278;SDS011;9773;47.062;15.446;2023-12-20T00:34:02;14.43;;;9.90;;
19278;SDS011;9773;47.062;15.446;2023-12-20T00:36:28;13.13;;;9.23;;
19278;SDS011;9773;47.062;15.446;2023-12-20T00:38:55;14.03;;;9.37;;
19278;SDS011;9773;47.062;15.446;2023-12-20T00:41:21;17.57;;;11.27;;
19278;SDS011;9773;47.062;15.446;2023-12-20T00:43:47;18.73;;;12.13;;
19278;SDS011;9773;47.062;15.446;2023-12-20T00:46:13;18.60;;;11.07;;
19278;SDS011;9773;47.062;15.446;2023-12-20T00:48:39;18.10;;;11.37;;
19278;SDS011;9773;47.062;15.446;2023-12-20T00:51:07;17.53;;;11.63;;
19278;SDS011;9773;47.062;15.446;2023-12-20T00:53:33;20.17;;;11.97;;
19278;SDS011;9773;47.062;15.446;2023-12-20T00:56:00;20.23;;;12.97;;
19278;SDS011;9773;47.062;15.446;2023-12-20T00:58:26;21.33;;;13.37;;
19278;SDS011;9773;47.062;15.446;2023-12-20T01:00:53;17.70;;;12.33;;
19278;SDS011;9773;47.062;15.446;2023-12-20T01:03:19;24.53;;;13.40;;
19278;SDS011;9773;47.062;15.446;2023-12-20T01:05:45;22.00;;;13.33;;
19278;SDS011;9773;47.062;15.446;2023-12-20T01:08:11;24.17;;;13.70;;
19278;SDS011;9773;47.062;15.446;2023-12-20T01:10:37;21.30;;;12.70;;
19278;SDS011;9773;47.062;15.446;2023-12-20T01:13:04;23.30;;;13.20;;
19278;SDS011;9773;47.062;15.446;2023-12-20T01:15:30;20.93;;;12.63;;
19278;SDS011;9773;47.062;15.446;2023-12-20T01:17:56;23.13;;;12.23;;
19278;SDS011;9773;47.062;15.446;2023-12-20T01:20:24;20.97;;;12.53;;
19278;SDS011;9773;47.062;15.446;2023-12-20T01:22:50;20.60;;;11.73;;
19278;SDS011;9773;47.062;15.446;2023-12-20T01:25:16;17.30;;;11.50;;
19278;SDS011;9773;47.062;15.446;2023-12-20T01:27:42;22.30;;;12.10;;
19278;SDS011;9773;47.062;15.446;2023-12-20T01:30:09;21.63;;;11.67;;
19278;SDS011;9773;47.062;15.446;2023-12-20T01:32:35;18.90;;;10.47;;
19278;SDS011;9773;47.062;15.446;2023-12-20T01:35:01;15.57;;;9.90;;
19278;SDS011;9773;47.062;15.446;2023-12-20T01:37:27;16.77;;;10.20;;
19278;SDS011;9773;47.062;15.446;2023-12-20T01:39:54;15.07;;;9.97;;
19278;SDS011;9773;47.062;15.446;2023-12-20T01:42:20;17.93;;;11.27;;
19278;SDS011;9773;47.062;15.446;2023-12-20T01:44:48;15.97;;;10.30;;
19278;SDS011;9773;47.062;15.446;2023-12-20T01:47:14;14.70;;;9.43;;
19278;SDS011;9773;47.062;15.446;2023-12-20T01:49:41;16.20;;;9.87;;
19278;SDS011;9773;47.062;15.446;2023-12-20T01:52:07;17.20;;;10.00;;
19278;SDS011;9773;47.062;15.446;2023-12-20T01:54:34;18.73;;;10.40;;
19278;SDS011;9773;47.062;15.446;2023-12-20T01:57:00;15.87;;;10.23;;
19278;SDS011;9773;47.062;15.446;2023-12-20T01:59:28;14.47;;;9.93;;
19278;SDS011;9773;47.062;15.446;2023-12-20T02:01:54;15.87;;;10.57;;
19278;SDS011;9773;47.062;15.446;2023-12-20T02:04:20;20.10;;;10.90;;
19278;SDS011;9773;47.062;15.446;2023-12-20T02:06:46;16.97;;;9.70;;
19278;SDS011;9773;47.062;15.446;2023-12-20T02:09:14;7.97;;;6.20;;
19278;SDS011;9773;47.062;15.446;2023-12-20T02:11:40;10.67;;;6.60;;
19278;SDS011;9773;47.062;15.446;2023-12-20T02:14:07;10.10;;;6.27;;
19278;SDS011;9773;47.062;15.446;2023-12-20T02:16:33;9.67;;;7.37;;
19278;SDS011;9773;47.062;15.446;2023-12-20T02:18:59;8.37;;;6.07;;
19278;SDS011;9773;47.062;15.446;2023-12-20T02:21:25;5.53;;;4.77;;
19278;SDS011;9773;47.062;15.446;2023-12-20T02:23:58;5.43;;;4.60;;
19278;SDS011;9773;47.062;15.446;2023-12-20T02:26:24;8.10;;;5.20;;
19278;SDS011;9773;47.062;15.446;2023-12-20T02:28:51;6.80;;;4.83;;
19278;SDS011;9773;47.062;15.446;2023-12-20T02:31:17;7.47;;;4.77;;
19278;SDS011;9773;47.062;15.446;2023-12-20T02:33:46;9.47;;;5.20;;
19278;SDS011;9773;47.062;15.446;2023-12-20T02:36:12;6.47;;;5.37;;
19278;SDS011;9773;47.062;15.446;2023-12-20T02:38:38;6.73;;;5.00;;
19278;SDS011;9773;47.062;15.446;2023-12-20T02:41:04;5.07;;;4.43;;
19278;SDS011;9773;47.062;15.446;2023-12-20T02:43:31;5.07;;;4.40;;
19278;SDS011;9773;47.062;15.446;2023-12-20T02:45:57;6.17;;;4.87;;
19278;SDS011;9773;47.062;15.446;2023-12-20T02:48:23;6.87;;;4.33;;
19278;SDS011;9773;47.062;15.446;2023-12-20T02:50:49;5.63;;;4.67;;
19278;SDS011;9773;47.062;15.446;2023-12-20T02:53:15;6.30;;;4.70;;
19278;SDS011;9773;47.062;15.446;2023-12-20T02:55:41;6.17;;;5.00;;
19278;SDS011;9773;47.062;15.446;2023-12-20T02:58:07;4.97;;;4.47;;
19278;SDS011;9773;47.062;15.446;2023-12-20T03:00:33;5.10;;;4.50;;
19278;SDS011;9773;47.062;15.446;2023-12-20T03:02:59;6.47;;;4.60;;
19278;SDS011;9773;47.062;15.446;2023-12-20T03:05:27;7.43;;;4.70;;
19278;SDS011;9773;47.062;15.446;2023-12-20T03:07:53;6.97;;;4.97;;
19278;SDS011;9773;47.062;15.446;2023-12-20T03:10:19;8.00;;;4.90;;
19278;SDS011;9773;47.062;15.446;2023-12-20T03:12:45;8.03;;;5.43;;
19278;SDS011;9773;47.062;15.446;2023-12-20T03:15:11;11.47;;;5.37;;
19278;SDS011;9773;47.062;15.446;2023-12-20T03:17:37;10.90;;;5.90;;
19278;SDS011;9773;47.062;15.446;2023-12-20T03:20:03;7.73;;;5.07;;
19278;SDS011;9773;47.062;15.446;2023-12-20T03:22:30;10.27;;;5.40;;
19278;SDS011;9773;47.062;15.446;2023-12-20T03:24:56;9.40;;;5.43;;
19278;SDS011;9773;47.062;15.446;2023-12-20T03:27:22;7.30;;;5.20;;
19278;SDS011;9773;47.062;15.446;2023-12-20T03:29:49;5.57;;;4.87;;
19278;SDS011;9773;47.062;15.446;2023-12-20T03:32:15;6.97;;;5.50;;
19278;SDS011;9773;47.062;15.446;2023-12-20T03:34:41;9.10;;;5.50;;
19278;SDS011;9773;47.062;15.446;2023-12-20T03:37:07;7.13;;;5.77;;
19278;SDS011;9773;47.062;15.446;2023-12-20T03:39:33;10.07;;;5.73;;
19278;SDS011;9773;47.062;15.446;2023-12-20T03:42:00;8.93;;;5.90;;
19278;SDS011;9773;47.062;15.446;2023-12-20T03:44:26;8.73;;;6.20;;
19278;SDS011;9773;47.062;15.446;2023-12-20T03:46:52;10.43;;;6.90;;
19278;SDS011;9773;47.062;15.446;2023-12-20T03:49:18;11.87;;;7.00;;
19278;SDS011;9773;47.062;15.446;2023-12-20T03:51:44;13.63;;;8.07;;
19278;SDS011;9773;47.062;15.446;2023-12-20T03:54:10;11.87;;;7.63;;
19278;SDS011;9773;47.062;15.446;2023-12-20T03:56:36;14.40;;;8.40;;
19278;SDS011;9773;47.062;15.446;2023-12-20T03:59:02;13.07;;;8.33;;
19278;SDS011;9773;47.062;15.446;2023-12-20T04:01:28;14.40;;;8.27;;
19278;SDS011;9773;47.062;15.446;2023-12-20T04:03:54;9.90;;;7.37;;
19278;SDS011;9773;47.062;15.446;2023-12-20T04:06:21;11.77;;;7.90;;
19278;SDS011;9773;47.062;15.446;2023-12-20T04:08:47;12.33;;;8.17;;
19278;SDS011;9773;47.062;15.446;2023-12-20T04:11:13;10.70;;;8.00;;
19278;SDS011;9773;47.062;15.446;2023-12-20T04:13:39;15.90;;;8.27;;
19278;SDS011;9773;47.062;15.446;2023-12-20T04:16:05;11.67;;;8.63;;
19278;SDS011;9773;47.062;15.446;2023-12-20T04:18:31;15.47;;;9.17;;
19278;SDS011;9773;47.062;15.446;2023-12-20T04:20:57;17.77;;;9.37;;
19278;SDS011;9773;47.062;15.446;2023-12-20T04:23:23;16.63;;;10.20;;
19278;SDS011;9773;47.062;15.446;2023-12-20T04:25:50;15.17;;;9.53;;
19278;SDS011;9773;47.062;15.446;2023-12-20T04:28:16;16.93;;;10.07;;
19278;SDS011;9773;47.062;15.446;2023-12-20T04:30:42;15.83;;;10.67;;
19278;SDS011;9773;47.062;15.446;2023-12-20T04:33:08;17.20;;;10.30;;
19278;SDS011;9773;47.062;15.446;2023-12-20T04:35:34;16.57;;;10.97;;
19278;SDS011;9773;47.062;15.446;2023-12-20T04:38:00;21.60;;;12.23;;
19278;SDS011;9773;47.062;15.446;2023-12-20T04:40:26;20.33;;;12.23;;
19278;SDS011;9773;47.062;15.446;2023-12-20T04:42:52;19.47;;;11.77;;
19278;SDS011;9773;47.062;15.446;2023-12-20T04:45:19;19.27;;;12.17;;
19278;SDS011;9773;47.062;15.446;2023-12-20T04:47:45;18.50;;;11.90;;
19278;SDS011;9773;47.062;15.446;2023-12-20T04:50:12;23.73;;;13.97;;
19278;SDS011;9773;47.062;15.446;2023-12-20T04:52:38;18.70;;;12.77;;
19278;SDS011;9773;47.062;15.446;2023-12-20T04:55:04;19.47;;;11.80;;
19278;SDS011;9773;47.062;15.446;2023-12-20T04:57:31;21.47;;;12.73;;
19278;SDS011;9773;47.062;15.446;2023-12-20T04:59:57;20.27;;;11.70;;
19278;SDS011;9773;47.062;15.446;2023-12-20T05:02:23;22.77;;;12.90;;
19278;SDS011;9773;47.062;15.446;2023-12-20T05:04:49;22.90;;;11.90;;
19278;SDS011;9773;47.062;15.446;2023-12-20T05:07:15;18.73;;;11.90;;
19278;SDS011;9773;47.062;15.446;2023-12-20T05:09:41;19.97;;;12.30;;
19278;SDS011;9773;47.062;15.446;2023-12-20T05:12:07;17.27;;;12.13;;
19278;SDS011;9773;47.062;15.446;2023-12-20T05:14:34;17.20;;;10.70;;
19278;SDS011;9773;47.062;15.446;2023-12-20T05:17:00;19.57;;;11.53;;
19278;SDS011;9773;47.062;15.446;2023-12-20T05:19:26;19.07;;;10.57;;
19278;SDS011;9773;47.062;15.446;2023-12-20T05:21:52;16.93;;;10.80;;
19278;SDS011;9773;47.062;15.446;2023-12-20T05:24:18;19.73;;;11.47;;
19278;SDS011;9773;47.062;15.446;2023-12-20T05:26:45;21.37;;;12.07;;
19278;SDS011;9773;47.062;15.446;2023-12-20T05:29:11;16.57;;;11.00;;
19278;SDS011;9773;47.062;15.446;2023-12-20T05:31:37;18.53;;;10.53;;
19278;SDS011;9773;47.062;15.446;2023-12-20T05:34:03;16.63;;;11.03;;
19278;SDS011;9773;47.062;15.446;2023-12-20T05:36:29;15.30;;;10.10;;
19278;SDS011;9773;47.062;15.446;2023-12-20T05:38:55;14.77;;;9.90;;
19278;SDS011;9773;47.062;15.446;2023-12-20T05:41:21;11.93;;;7.63;;
19278;SDS011;9773;47.062;15.446;2023-12-20T05:43:48;9.27;;;6.27;;
19278;SDS011;9773;47.062;15.446;2023-12-20T05:46:14;7.47;;;5.70;;
19278;SDS011;9773;47.062;15.446;2023-12-20T05:48:40;5.50;;;4.97;;
19278;SDS011;9773;47.062;15.446;2023-12-20T05:51:06;5.87;;;4.50;;
19278;SDS011;9773;47.062;15.446;2023-12-20T05:53:33;6.43;;;4.40;;
19278;SDS011;9773;47.062;15.446;2023-12-20T05:55:59;7.07;;;4.40;;
19278;SDS011;9773;47.062;15.446;2023-12-20T05:58:25;6.33;;;4.27;;
19278;SDS011;9773;47.062;15.446;2023-12-20T06:00:51;5.23;;;4.30;;
19278;SDS011;9773;47.062;15.446;2023-12-20T06:03:17;4.70;;;4.13;;
19278;SDS011;9773;47.062;15.446;2023-12-20T06:05:43;4.53;;;3.93;;
19278;SDS011;9773;47.062;15.446;2023-12-20T06:08:10;9.10;;;4.97;;
19278;SDS011;9773;47.062;15.446;2023-12-20T06:10:36;6.23;;;4.63;;
19278;SDS011;9773;47.062;15.446;2023-12-20T06:13:02;6.67;;;4.83;;
19278;SDS011;9773;47.062;15.446;2023-12-20T06:15:29;6.37;;;4.73;;
19278;SDS011;9773;47.062;15.446;2023-12-20T06:17:55;6.50;;;4.70;;
19278;SDS011;9773;47.062;15.446;2023-12-20T06:20:21;4.97;;;3.70;;
19278;SDS011;9773;47.062;15.446;2023-12-20T06:22:48;7.40;;;4.47;;
19278;SDS011;9773;47.062;15.446;2023-12-20T06:25:16;8.53;;;4.27;;
19278;SDS011;9773;47.062;15.446;2023-12-20T06:27:42;4.80;;;3.77;;
19278;SDS011;9773;47.062;15.446;2023-12-20T06:30:08;5.40;;;3.97;;
19278;SDS011;9773;47.062;15.446;2023-12-20T06:32:34;5.00;;;4.13;;
19278;SDS011;9773;47.062;15.446;2023-12-20T06:35:00;4.73;;;3.90;;
19278;SDS011;9773;47.062;15.446;2023-12-20T06:37:27;5.43;;;4.00;;
19278;SDS011;9773;47.062;15.446;2023-12-20T06:39:53;8.13;;;4.40;;
19278;SDS011;9773;47.062;15.446;2023-12-20T06:42:19;7.07;;;4.70;;
19278;SDS011;9773;47.062;15.446;2023-12-20T06:44:46;6.27;;;4.53;;
19278;SDS011;9773;47.062;15.446;2023-12-20T06:47:12;5.20;;;4.13;;
19278;SDS011;9773;47.062;15.446;2023-12-20T06:49:40;3.97;;;3.57;;
19278;SDS011;9773;47.062;15.446;2023-12-20T06:52:06;6.03;;;4.57;;
19278;SDS011;9773;47.062;15.446;2023-12-20T06:54:32;5.93;;;5.00;;
19278;SDS011;9773;47.062;15.446;2023-12-20T06:56:59;6.07;;;4.43;;
19278;SDS011;9773;47.062;15.446;2023-12-20T06:59:27;4.77;;;4.20;;
19278;SDS011;9773;47.062;15.446;2023-12-20T07:01:53;5.27;;;4.27;;
19278;SDS011;9773;47.062;15.446;2023-12-20T07:04:19;4.47;;;4.07;;
19278;SDS011;9773;47.062;15.446;2023-12-20T07:06:49;8.50;;;4.27;;
19278;SDS011;9773;47.062;15.446;2023-12-20T07:09:22;4.30;;;3.87;;
19278;SDS011;9773;47.062;15.446;2023-12-20T07:11:48;3.90;;;3.53;;
19278;SDS011;9773;47.062;15.446;2023-12-20T07:14:14;8.00;;;3.90;;
19278;SDS011;9773;47.062;15.446;2023-12-20T07:16:40;4.73;;;4.17;;
19278;SDS011;9773;47.062;15.446;2023-12-20T07:19:06;5.63;;;4.03;;
19278;SDS011;9773;47.062;15.446;2023-12-20T07:21:33;5.87;;;4.37;;
19278;SDS011;9773;47.062;15.446;2023-12-20T07:23:59;4.80;;;4.00;;
19278;SDS011;9773;47.062;15.446;2023-12-20T07:26:25;6.03;;;4.60;;
19278;SDS011;9773;47.062;15.446;2023-12-20T07:28:51;6.20;;;5.00;;
19278;SDS011;9773;47.062;15.446;2023-12-20T07:31:17;12.20;;;7.20;;
19278;SDS011;9773;47.062;15.446;2023-12-20T07:33:43;12.63;;;6.93;;
19278;SDS011;9773;47.062;15.446;2023-12-20T07:36:09;14.60;;;8.23;;
19278;SDS011;9773;47.062;15.446;2023-12-20T07:38:36;13.90;;;8.90;;
19278;SDS011;9773;47.062;15.446;2023-12-20T07:41:10;14.37;;;8.27;;
19278;SDS011;9773;47.062;15.446;2023-12-20T07:43:36;16.87;;;8.47;;
19278;SDS011;9773;47.062;15.446;2023-12-20T07:46:06;18.27;;;9.53;;
19278;SDS011;9773;47.062;15.446;2023-12-20T07:48:33;19.73;;;8.87;;
19278;SDS011;9773;47.062;15.446;2023-12-20T07:50:59;17.03;;;9.40;;
19278;SDS011;9773;47.062;15.446;2023-12-20T07:53:26;18.10;;;9.40;;
19278;SDS011;9773;47.062;15.446;2023-12-20T07:55:52;17.03;;;9.77;;
19278;SDS011;9773;47.062;15.446;2023-12-20T07:58:18;14.03;;;9.07;;
19278;SDS011;9773;47.062;15.446;2023-12-20T08:00:44;17.27;;;10.03;;
19278;SDS011;9773;47.062;15.446;2023-12-20T08:03:10;11.67;;;6.90;;
19278;SDS011;9773;47.062;15.446;2023-12-20T08:05:37;9.87;;;6.77;;
19278;SDS011;9773;47.062;15.446;2023-12-20T08:08:05;22.13;;;8.67;;
19278;SDS011;9773;47.062;15.446;2023-12-20T08:10:32;15.23;;;9.53;;
19278;SDS011;9773;47.062;15.446;2023-12-20T08:13:00;21.83;;;10.70;;
19278;SDS011;9773;47.062;15.446;2023-12-20T08:15:26;19.50;;;11.90;;
19278;SDS011;9773;47.062;15.446;2023-12-20T08:17:52;48.67;;;19.97;;
19278;SDS011;9773;47.062;15.446;2023-12-20T08:20:18;56.37;;;23.60;;
19278;SDS011;9773;47.062;15.446;2023-12-20T08:22:44;48.00;;;22.17;;
19278;SDS011;9773;47.062;15.446;2023-12-20T08:25:10;39.53;;;19.57;;
19278;SDS011;9773;47.062;15.446;2023-12-20T08:27:40;37.53;;;17.23;;
19278;SDS011;9773;47.062;15.446;2023-12-20T08:30:07;27.40;;;14.90;;
19278;SDS011;9773;47.062;15.446;2023-12-20T08:32:34;29.63;;;13.70;;
19278;SDS011;9773;47.062;15.446;2023-12-20T08:35:00;30.47;;;13.70;;
19278;SDS011;9773;47.062;15.446;2023-12-20T08:37:26;25.27;;;12.83;;
19278;SDS011;9773;47.062;15.446;2023-12-20T08:39:52;28.03;;;12.73;;
19278;SDS011;9773;47.062;15.446;2023-12-20T08:42:19;25.50;;;12.33;;
19278;SDS011;9773;47.062;15.446;2023-12-20T08:44:48;20.23;;;12.37;;
19278;SDS011;9773;47.062;15.446;2023-12-20T08:47:14;21.03;;;12.93;;
19278;SDS011;9773;47.062;15.446;2023-12-20T08:49:41;24.10;;;13.47;;
19278;SDS011;9773;47.062;15.446;2023-12-20T08:52:07;21.90;;;13.80;;
19278;SDS011;9773;47.062;15.446;2023-12-20T08:54:33;21.43;;;13.10;;
19278;SDS011;9773;47.062;15.446;2023-12-20T08:56:59;23.63;;;14.00;;
19278;SDS011;9773;47.062;15.446;2023-12-20T08:59:25;21.97;;;12.20;;
19278;SDS011;9773;47.062;15.446;2023-12-20T09:01:51;27.17;;;13.77;;
19278;SDS011;9773;47.062;15.446;2023-12-20T09:04:20;27.53;;;14.13;;
19278;SDS011;9773;47.062;15.446;2023-12-20T09:06:46;24.83;;;13.60;;
19278;SDS011;9773;47.062;15.446;2023-12-20T09:09:12;20.50;;;13.03;;
19278;SDS011;9773;47.062;15.446;2023-12-20T09:11:41;22.30;;;13.00;;
19278;SDS011;9773;47.062;15.446;2023-12-20T09:14:07;22.10;;;13.00;;
19278;SDS011;9773;47.062;15.446;2023-12-20T09:16:34;19.27;;;13.50;;
19278;SDS011;9773;47.062;15.446;2023-12-20T09:19:00;20.23;;;12.50;;
19278;SDS011;9773;47.062;15.446;2023-12-20T09:21:26;20.03;;;12.97;;
19278;SDS011;9773;47.062;15.446;2023-12-20T09:23:52;22.63;;;13.10;;
19278;SDS011;9773;47.062;15.446;2023-12-20T09:26:18;20.37;;;12.80;;
19278;SDS011;9773;47.062;15.446;2023-12-20T09:28:45;26.37;;;13.27;;
19278;SDS011;9773;47.062;15.446;2023-12-20T09:31:12;25.63;;;13.40;;
19278;SDS011;9773;47.062;15.446;2023-12-20T09:33:38;28.10;;;13.13;;
19278;SDS011;9773;47.062;15.446;2023-12-20T09:36:05;26.03;;;13.20;;
19278;SDS011;9773;47.062;15.446;2023-12-20T09:38:32;22.67;;;13.83;;
19278;SDS011;9773;47.062;15.446;2023-12-20T09:40:58;18.10;;;10.93;;
19278;SDS011;9773;47.062;15.446;2023-12-20T09:43:29;16.80;;;10.97;;
19278;SDS011;9773;47.062;15.446;2023-12-20T09:45:57;16.33;;;11.00;;
19278;SDS011;9773;47.062;15.446;2023-12-20T09:48:27;19.10;;;11.50;;
19278;SDS011;9773;47.062;15.446;2023-12-20T09:50:53;19.20;;;11.53;;
19278;SDS011;9773;47.062;15.446;2023-12-20T09:53:20;15.77;;;11.23;;
19278;SDS011;9773;47.062;15.446;2023-12-20T09:55:48;18.50;;;10.73;;
19278;SDS011;9773;47.062;15.446;2023-12-20T09:58:14;14.77;;;9.50;;
19278;SDS011;9773;47.062;15.446;2023-12-20T10:00:41;12.43;;;9.40;;
19278;SDS011;9773;47.062;15.446;2023-12-20T10:03:07;14.80;;;8.83;;
19278;SDS011;9773;47.062;15.446;2023-12-20T10:05:34;11.87;;;7.90;;
19278;SDS011;9773;47.062;15.446;2023-12-20T10:08:00;13.00;;;9.20;;
19278;SDS011;9773;47.062;15.446;2023-12-20T10:10:27;11.30;;;8.63;;
19278;SDS011;9773;47.062;15.446;2023-12-20T10:13:03;12.63;;;8.50;;
19278;SDS011;9773;47.062;15.446;2023-12-20T10:15:29;10.40;;;8.30;;
19278;SDS011;9773;47.062;15.446;2023-12-20T10:17:56;12.77;;;8.77;;
19278;SDS011;9773;47.062;15.446;2023-12-20T10:20:22;19.87;;;8.67;;
19278;SDS011;9773;47.062;15.446;2023-12-20T10:22:51;14.67;;;8.23;;
19278;SDS011;9773;47.062;15.446;2023-12-20T10:25:19;14.67;;;8.27;;
19278;SDS011;9773;47.062;15.446;2023-12-20T10:27:45;11.33;;;8.47;;
19278;SDS011;9773;47.062;15.446;2023-12-20T10:30:11;16.17;;;8.30;;
19278;SDS011;9773;47.062;15.446;2023-12-20T10:32:37;9.80;;;8.30;;
19278;SDS011;9773;47.062;15.446;2023-12-20T10:35:06;13.87;;;8.40;;
19278;SDS011;9773;47.062;15.446;2023-12-20T10:37:36;11.83;;;8.30;;
19278;SDS011;9773;47.062;15.446;2023-12-20T10:40:03;13.30;;;7.83;;
19278;SDS011;9773;47.062;15.446;2023-12-20T10:42:30;15.60;;;7.93;;
19278;SDS011;9773;47.062;15.446;2023-12-20T10:44:59;15.60;;;8.00;;
19278;SDS011;9773;47.062;15.446;2023-12-20T10:47:25;10.97;;;8.57;;
19278;SDS011;9773;47.062;15.446;2023-12-20T10:49:54;12.70;;;7.83;;
19278;SDS011;9773;47.062;15.446;2023-12-20T10:52:22;11.27;;;8.20;;
19278;SDS011;9773;47.062;15.446;2023-12-20T10:54:49;12.60;;;8.20;;
19278;SDS011;9773;47.062;15.446;2023-12-20T10:57:16;18.57;;;8.83;;
19278;SDS011;9773;47.062;15.446;2023-12-20T10:59:44;18.20;;;8.37;;
19278;SDS011;9773;47.062;15.446;2023-12-20T11:02:12;12.07;;;7.90;;
19278;SDS011;9773;47.062;15.446;2023-12-20T11:04:43;15.37;;;8.20;;
19278;SDS011;9773;47.062;15.446;2023-12-20T11:09:58;17.23;;;9.00;;
19278;SDS011;9773;47.062;15.446;2023-12-20T11:14:52;17.27;;;9.03;;
19278;SDS011;9773;47.062;15.446;2023-12-20T11:17:22;15.83;;;8.83;;
19278;SDS011;9773;47.062;15.446;2023-12-20T11:22:21;18.27;;;8.57;;
19278;SDS011;9773;47.062;15.446;2023-12-20T11:24:48;18.17;;;8.90;;
19278;SDS011;9773;47.062;15.446;2023-12-20T11:27:14;15.77;;;8.77;;
19278;SDS011;9773;47.062;15.446;2023-12-20T11:29:41;22.83;;;13.70;;
19278;SDS011;9773;47.062;15.446;2023-12-20T11:32:49;17.17;;;11.40;;
19278;SDS011;9773;47.062;15.446;2023-12-20T11:35:00;22.57;;;13.83;;
19278;SDS011;9773;47.062;15.446;2023-12-20T11:37:30;20.10;;;13.23;;
19278;SDS011;9773;47.062;15.446;2023-12-20T11:40:06;18.50;;;12.83;;
19278;SDS011;9773;47.062;15.446;2023-12-20T11:42:40;16.23;;;11.70;;
19278;SDS011;9773;47.062;15.446;2023-12-20T11:45:08;15.83;;;10.70;;
19278;SDS011;9773;47.062;15.446;2023-12-20T11:47:35;16.37;;;10.47;;
19278;SDS011;9773;47.062;15.446;2023-12-20T11:50:01;16.83;;;9.73;;
19278;SDS011;9773;47.062;15.446;2023-12-20T11:52:29;12.10;;;8.23;;
19278;SDS011;9773;47.062;15.446;2023-12-20T11:54:58;10.47;;;8.03;;
19278;SDS011;9773;47.062;15.446;2023-12-20T11:57:24;14.00;;;9.23;;
19278;SDS011;9773;47.062;15.446;2023-12-20T11:59:50;13.37;;;8.33;;
19278;SDS011;9773;47.062;15.446;2023-12-20T12:02:17;13.80;;;9.00;;
19278;SDS011;9773;47.062;15.446;2023-12-20T12:04:43;17.93;;;8.40;;
19278;SDS011;9773;47.062;15.446;2023-12-20T12:07:09;12.83;;;8.43;;
19278;SDS011;9773;47.062;15.446;2023-12-20T12:09:35;11.37;;;8.87;;
19278;SDS011;9773;47.062;15.446;2023-12-20T12:12:01;16.03;;;9.30;;
19278;SDS011;9773;47.062;15.446;2023-12-20T12:14:28;13.50;;;9.13;;
19278;SDS011;9773;47.062;15.446;2023-12-20T12:16:54;14.43;;;8.37;;
19278;SDS011;9773;47.062;15.446;2023-12-20T12:19:21;14.70;;;9.23;;
19278;SDS011;9773;47.062;15.446;2023-12-20T12:21:47;10.50;;;7.97;;
19278;SDS011;9773;47.062;15.446;2023-12-20T12:24:13;13.17;;;8.57;;
19278;SDS011;9773;47.062;15.446;2023-12-20T12:26:39;18.30;;;9.33;;
19278;SDS011;9773;47.062;15.446;2023-12-20T12:29:08;14.83;;;8.73;;
19278;SDS011;9773;47.062;15.446;2023-12-20T12:31:35;17.27;;;9.40;;
19278;SDS011;9773;47.062;15.446;2023-12-20T12:34:01;14.67;;;8.63;;
19278;SDS011;9773;47.062;15.446;2023-12-20T12:36:28;13.17;;;8.07;;
19278;SDS011;9773;47.062;15.446;2023-12-20T12:38:56;16.37;;;8.77;;
19278;SDS011;9773;47.062;15.446;2023-12-20T12:41:22;19.93;;;8.80;;
19278;SDS011;9773;47.062;15.446;2023-12-20T12:43:49;15.33;;;8.30;;
19278;SDS011;9773;47.062;15.446;2023-12-20T12:46:15;17.53;;;8.80;;
19278;SDS011;9773;47.062;15.446;2023-12-20T12:48:41;12.00;;;9.50;;
19278;SDS011;9773;47.062;15.446;2023-12-20T12:51:07;17.37;;;9.70;;
19278;SDS011;9773;47.062;15.446;2023-12-20T12:53:37;14.47;;;9.60;;
19278;SDS011;9773;47.062;15.446;2023-12-20T12:56:03;13.60;;;9.17;;
19278;SDS011;9773;47.062;15.446;2023-12-20T12:58:29;21.73;;;10.53;;
19278;SDS011;9773;47.062;15.446;2023-12-20T13:00:56;12.33;;;8.37;;
19278;SDS011;9773;47.062;15.446;2023-12-20T13:03:22;13.03;;;8.47;;
19278;SDS011;9773;47.062;15.446;2023-12-20T13:05:49;13.73;;;8.47;;
19278;SDS011;9773;47.062;15.446;2023-12-20T13:08:15;19.73;;;9.63;;
19278;SDS011;9773;47.062;15.446;2023-12-20T13:10:41;17.03;;;8.67;;
19278;SDS011;9773;47.062;15.446;2023-12-20T13:13:08;17.37;;;8.63;;
19278;SDS011;9773;47.062;15.446;2023-12-20T13:15:34;14.07;;;8.30;;
19278;SDS011;9773;47.062;15.446;2023-12-20T13:18:00;13.23;;;8.33;;
19278;SDS011;9773;47.062;15.446;2023-12-20T13:20:26;14.30;;;8.03;;
19278;SDS011;9773;47.062;15.446;2023-12-20T13:22:52;15.70;;;9.37;;
19278;SDS011;9773;47.062;15.446;2023-12-20T13:25:21;13.40;;;8.63;;
19278;SDS011;9773;47.062;15.446;2023-12-20T13:27:53;16.67;;;8.87;;
19278;SDS011;9773;47.062;15.446;2023-12-20T13:30:20;16.03;;;10.03;;
19278;SDS011;9773;47.062;15.446;2023-12-20T13:32:49;13.97;;;9.73;;
19278;SDS011;9773;47.062;15.446;2023-12-20T13:35:17;20.30;;;10.53;;
19278;SDS011;9773;47.062;15.446;2023-12-20T13:37:46;18.83;;;10.03;;
19278;SDS011;9773;47.062;15.446;2023-12-20T13:40:16;17.00;;;11.37;;
19278;SDS011;9773;47.062;15.446;2023-12-20T13:42:46;24.73;;;11.83;;
19278;SDS011;9773;47.062;15.446;2023-12-20T13:45:14;22.47;;;14.60;;
19278;SDS011;9773;47.062;15.446;2023-12-20T13:47:41;26.47;;;13.67;;
19278;SDS011;9773;47.062;15.446;2023-12-20T13:50:08;25.63;;;13.83;;
19278;SDS011;9773;47.062;15.446;2023-12-20T13:52:42;22.73;;;13.00;;
19278;SDS011;9773;47.062;15.446;2023-12-20T13:55:12;18.37;;;12.00;;
19278;SDS011;9773;47.062;15.446;2023-12-20T13:57:41;19.27;;;10.60;;
19278;SDS011;9773;47.062;15.446;2023-12-20T14:00:11;16.27;;;11.13;;
19278;SDS011;9773;47.062;15.446;2023-12-20T14:02:41;20.10;;;10.67;;
19278;SDS011;9773;47.062;15.446;2023-12-20T14:05:11;18.63;;;10.30;;
19278;SDS011;9773;47.062;15.446;2023-12-20T14:07:43;20.20;;;10.37;;
19278;SDS011;9773;47.062;15.446;2023-12-20T14:10:12;17.50;;;10.90;;
19278;SDS011;9773;47.062;15.446;2023-12-20T14:12:41;21.33;;;10.87;;
19278;SDS011;9773;47.062;15.446;2023-12-20T14:15:12;22.90;;;10.97;;
19278;SDS011;9773;47.062;15.446;2023-12-20T14:17:41;22.63;;;11.27;;
19278;SDS011;9773;47.062;15.446;2023-12-20T14:20:11;13.37;;;10.23;;
19278;SDS011;9773;47.062;15.446;2023-12-20T14:22:41;15.63;;;10.33;;
19278;SDS011;9773;47.062;15.446;2023-12-20T14:25:14;25.40;;;10.70;;
19278;SDS011;9773;47.062;15.446;2023-12-20T14:27:43;18.07;;;10.60;;
19278;SDS011;9773;47.062;15.446;2023-12-20T14:30:11;22.90;;;11.83;;
19278;SDS011;9773;47.062;15.446;2023-12-20T14:32:40;21.87;;;13.47;;
19278;SDS011;9773;47.062;15.446;2023-12-20T14:35:08;20.50;;;11.10;;
19278;SDS011;9773;47.062;15.446;2023-12-20T14:37:37;21.77;;;11.07;;
19278;SDS011;9773;47.062;15.446;2023-12-20T14:40:07;15.90;;;9.57;;